createdAt,value
2018-11-13T00:01:58.713Z,16.80
2018-11-13T00:04:27.777Z,19.10
2018-11-13T00:06:56.276Z,22.23
2018-11-13T00:09:24.721Z,19.20
2018-11-13T00:11:53.231Z,21.10
2018-11-13T00:14:21.719Z,19.23
2018-11-13T00:16:50.237Z,19.03
2018-11-13T00:19:18.775Z,22.30
2018-11-13T00:21:47.205Z,20.13
2018-11-13T00:24:15.764Z,18.03
2018-11-13T00:26:44.276Z,21.03
2018-11-13T00:29:12.752Z,19.87
2018-11-13T00:31:41.209Z,19.93
2018-11-13T00:34:09.615Z,18.10
2018-11-13T00:36:39.692Z,22.10
2018-11-13T00:39:11.618Z,17.47
2018-11-13T00:41:40.079Z,19.53
2018-11-13T00:44:08.861Z,19.80
2018-11-13T00:46:37.735Z,20.13
2018-11-13T00:49:06.203Z,17.63
2018-11-13T00:51:35.181Z,20.27
2018-11-13T00:54:03.669Z,17.13
2018-11-13T00:56:32.276Z,20.53
2018-11-13T00:59:00.691Z,16.63
2018-11-13T01:01:29.183Z,24.60
2018-11-13T01:03:57.594Z,16.50
2018-11-13T01:06:27.093Z,16.13
2018-11-13T01:08:55.573Z,18.10
2018-11-13T01:11:24.033Z,19.73
2018-11-13T01:13:52.462Z,16.70
2018-11-13T01:16:20.983Z,16.37
2018-11-13T01:18:49.488Z,18.30
2018-11-13T01:21:17.958Z,15.70
2018-11-13T01:23:47.645Z,14.20
2018-11-13T01:26:16.107Z,17.27
2018-11-13T01:28:44.565Z,16.07
2018-11-13T01:31:13.037Z,14.80
2018-11-13T01:33:41.460Z,14.43
2018-11-13T01:36:09.960Z,17.50
2018-11-13T01:38:38.432Z,15.07
2018-11-13T01:41:06.864Z,16.70
2018-11-13T01:43:35.303Z,15.20
2018-11-13T01:46:03.798Z,16.27
2018-11-13T01:48:32.233Z,13.27
2018-11-13T01:51:00.678Z,16.47
2018-11-13T01:53:29.098Z,13.43
2018-11-13T01:55:57.548Z,14.20
2018-11-13T01:58:26.016Z,12.03
2018-11-13T02:00:55.480Z,14.47
2018-11-13T02:03:23.948Z,17.13
2018-11-13T02:05:52.410Z,13.70
2018-11-13T02:08:21.205Z,15.20
2018-11-13T02:10:49.676Z,15.93
2018-11-13T02:13:18.096Z,17.03
2018-11-13T02:15:46.930Z,12.93
2018-11-13T02:18:15.388Z,13.17
2018-11-13T02:20:43.841Z,14.03
2018-11-13T02:23:12.325Z,14.10
2018-11-13T02:25:40.761Z,13.90
2018-11-13T02:28:09.184Z,17.27
2018-11-13T02:30:37.619Z,13.70
2018-11-13T02:33:06.339Z,13.67
2018-11-13T02:35:34.873Z,13.67
2018-11-13T02:38:03.312Z,16.70
2018-11-13T02:40:31.737Z,15.83
2018-11-13T02:43:00.209Z,16.20
2018-11-13T02:45:28.621Z,15.60
2018-11-13T02:47:57.105Z,16.47
2018-11-13T02:50:25.524Z,16.87
2018-11-13T02:52:53.932Z,15.63
2018-11-13T02:55:22.402Z,16.17
2018-11-13T02:57:50.855Z,16.53
2018-11-13T03:00:20.873Z,16.00
2018-11-13T03:04:18.786Z,20.47
2018-11-13T03:06:47.208Z,17.77
2018-11-13T03:09:15.686Z,17.90
2018-11-13T03:11:44.127Z,20.03
2018-11-13T03:14:12.593Z,19.10
2018-11-13T03:16:40.969Z,19.17
2018-11-13T03:19:09.375Z,20.43
2018-11-13T03:21:37.800Z,18.93
2018-11-13T03:24:06.288Z,18.83
2018-11-13T03:26:34.706Z,19.47
2018-11-13T03:29:03.133Z,18.63
2018-11-13T03:31:31.613Z,19.30
2018-11-13T03:34:00.057Z,21.43
2018-11-13T03:36:28.523Z,18.73
2018-11-13T03:38:56.985Z,20.30
2018-11-13T03:41:25.423Z,19.73
2018-11-13T03:43:53.845Z,22.53
2018-11-13T03:46:22.276Z,17.27
2018-11-13T03:48:50.707Z,22.87
2018-11-13T03:51:19.116Z,19.73
2018-11-13T03:53:47.582Z,24.00
2018-11-13T03:56:16.007Z,21.70
2018-11-13T03:58:44.433Z,19.67
2018-11-13T04:01:12.927Z,21.07
2018-11-13T04:03:41.397Z,20.00
2018-11-13T04:06:09.827Z,22.73
2018-11-13T04:08:38.255Z,21.97
2018-11-13T04:11:06.706Z,21.43
2018-11-13T04:13:35.151Z,21.43
2018-11-13T04:16:03.648Z,22.13
2018-11-13T04:18:32.109Z,25.57
2018-11-13T04:21:00.554Z,21.93
2018-11-13T04:23:28.996Z,23.43
2018-11-13T04:25:57.422Z,23.23
2018-11-13T04:28:25.886Z,25.33
2018-11-13T04:30:55.167Z,26.97
2018-11-13T04:33:24.466Z,22.27
2018-11-13T04:35:52.854Z,24.13
2018-11-13T04:38:21.266Z,24.83
2018-11-13T04:40:49.720Z,23.17
2018-11-13T04:43:18.189Z,22.93
2018-11-13T04:45:47.443Z,25.60
2018-11-13T04:48:15.956Z,29.03
2018-11-13T04:50:44.389Z,24.37
2018-11-13T04:53:12.835Z,25.93
2018-11-13T04:55:41.242Z,27.77
2018-11-13T04:58:09.692Z,26.07
2018-11-13T05:00:38.873Z,26.37
2018-11-13T05:03:07.374Z,27.73
2018-11-13T05:05:35.849Z,30.23
2018-11-13T05:08:04.393Z,28.77
2018-11-13T05:10:33.485Z,27.17
2018-11-13T05:13:01.935Z,24.87
2018-11-13T05:15:30.355Z,29.50
2018-11-13T05:17:58.797Z,27.83
2018-11-13T05:20:27.218Z,28.73
2018-11-13T05:22:55.772Z,24.70
2018-11-13T05:25:25.471Z,29.43
2018-11-13T05:27:53.893Z,27.53
2018-11-13T05:30:22.846Z,25.87
2018-11-13T05:32:51.661Z,26.43
2018-11-13T05:35:21.129Z,26.17
2018-11-13T05:37:49.592Z,24.80
2018-11-13T05:40:19.310Z,29.33
2018-11-13T05:42:48.574Z,25.43
2018-11-13T05:45:18.490Z,26.00
2018-11-13T05:47:46.932Z,28.70
2018-11-13T05:50:16.272Z,26.47
2018-11-13T05:52:45.472Z,28.73
2018-11-13T05:55:14.471Z,25.73
2018-11-13T05:57:42.941Z,27.13
2018-11-13T06:00:13.636Z,26.60
2018-11-13T06:02:42.075Z,21.77
2018-11-13T06:05:11.039Z,26.40
2018-11-13T06:07:40.800Z,27.10
2018-11-13T06:10:10.405Z,26.67
2018-11-13T06:12:38.829Z,22.17
2018-11-13T06:15:07.862Z,24.17
2018-11-13T06:17:36.272Z,20.97
2018-11-13T06:20:05.132Z,26.83
2018-11-13T06:22:33.761Z,26.10
2018-11-13T06:25:02.190Z,24.43
2018-11-13T06:27:30.599Z,25.67
2018-11-13T06:29:59.034Z,20.83
2018-11-13T06:32:27.436Z,26.30
2018-11-13T06:34:55.834Z,21.90
2018-11-13T06:37:24.282Z,22.80
2018-11-13T06:39:52.749Z,18.03
2018-11-13T06:42:21.307Z,19.87
2018-11-13T06:44:49.759Z,24.00
2018-11-13T06:47:18.261Z,21.53
2018-11-13T06:49:46.759Z,20.70
2018-11-13T06:52:15.227Z,17.53
2018-11-13T06:55:11.672Z,21.73
2018-11-13T06:57:40.125Z,18.53
2018-11-13T07:00:09.580Z,17.83
2018-11-13T07:02:38.690Z,17.57
2018-11-13T07:05:09.503Z,19.20
2018-11-13T07:07:37.929Z,20.47
2018-11-13T07:10:07.521Z,19.13
2018-11-13T07:12:35.973Z,16.77
2018-11-13T07:15:04.756Z,21.30
2018-11-13T07:17:35.069Z,14.80
2018-11-13T07:20:03.768Z,16.30
2018-11-13T07:22:32.204Z,17.13
2018-11-13T07:25:00.633Z,15.93
2018-11-13T07:27:30.073Z,14.67
2018-11-13T07:29:58.668Z,13.27
2018-11-13T07:32:27.111Z,13.80
2018-11-13T07:34:55.559Z,13.77
2018-11-13T07:37:24.163Z,12.00
2018-11-13T07:39:52.610Z,13.30
2018-11-13T07:42:21.320Z,15.13
2018-11-13T07:44:49.784Z,14.70
2018-11-13T07:47:18.337Z,12.33
2018-11-13T07:49:47.730Z,12.77
2018-11-13T07:52:16.222Z,14.40
2018-11-13T07:54:44.697Z,12.17
2018-11-13T07:57:13.149Z,13.20
2018-11-13T07:59:41.623Z,10.50
2018-11-13T08:02:10.088Z,11.27
2018-11-13T08:04:38.637Z,12.30
2018-11-13T08:07:07.885Z,12.80
2018-11-13T08:09:36.365Z,12.67
2018-11-13T08:12:04.891Z,13.90
2018-11-13T08:14:33.433Z,13.73
2018-11-13T08:17:02.899Z,11.63
2018-11-13T08:19:32.107Z,12.73
2018-11-13T08:22:00.587Z,12.90
2018-11-13T08:24:29.061Z,13.97
2018-11-13T08:26:57.563Z,11.23
2018-11-13T08:29:26.048Z,13.30
2018-11-13T08:31:54.492Z,10.07
2018-11-13T08:34:22.991Z,12.57
2018-11-13T08:36:51.505Z,10.10
2018-11-13T08:39:19.992Z,10.70
2018-11-13T08:41:48.432Z,10.90
2018-11-13T08:44:17.809Z,11.03
2018-11-13T08:46:46.226Z,12.57
2018-11-13T08:49:14.682Z,13.57
2018-11-13T08:51:43.224Z,13.60
2018-11-13T08:54:12.822Z,13.00
2018-11-13T08:56:41.365Z,11.87
2018-11-13T08:59:09.999Z,9.83
2018-11-13T09:01:38.365Z,13.97
2018-11-13T09:04:06.829Z,16.10
2018-11-13T09:06:35.256Z,15.30
2018-11-13T09:09:04.968Z,11.97
2018-11-13T09:11:33.479Z,12.20
2018-11-13T09:14:01.946Z,10.73
2018-11-13T09:16:30.404Z,12.37
2018-11-13T09:18:58.910Z,13.47
2018-11-13T09:21:28.004Z,12.60
2018-11-13T09:23:56.487Z,12.20
2018-11-13T09:26:24.917Z,11.30
2018-11-13T09:28:53.432Z,7.27
2018-11-13T09:31:21.975Z,8.33
2018-11-13T09:33:50.362Z,8.17
2018-11-13T09:36:18.928Z,7.23
2018-11-13T09:38:47.391Z,7.67
2018-11-13T09:41:16.055Z,5.40
2018-11-13T09:43:44.529Z,6.80
2018-11-13T09:46:13.249Z,6.63
2018-11-13T09:48:41.719Z,7.40
2018-11-13T09:51:10.248Z,7.60
2018-11-13T09:53:38.857Z,6.40
2018-11-13T09:56:07.234Z,4.37
2018-11-13T09:58:35.696Z,4.83
2018-11-13T10:01:04.449Z,5.93
2018-11-13T10:03:33.120Z,4.60
2018-11-13T10:06:01.347Z,3.03
2018-11-13T10:08:29.794Z,3.10
2018-11-13T10:10:58.235Z,3.87
2018-11-13T10:13:26.664Z,4.50
2018-11-13T10:15:56.052Z,4.10
2018-11-13T10:18:24.721Z,7.17
2018-11-13T10:20:52.996Z,4.73
2018-11-13T10:23:21.451Z,3.97
2018-11-13T10:25:49.962Z,3.87
2018-11-13T10:28:19.440Z,5.60
2018-11-13T10:30:47.941Z,5.37
2018-11-13T10:33:16.454Z,4.50
2018-11-13T10:35:44.921Z,4.70
2018-11-13T10:38:13.396Z,4.20
2018-11-13T10:40:42.089Z,3.10
2018-11-13T10:43:10.425Z,6.67
2018-11-13T10:45:38.834Z,4.60
2018-11-13T10:48:07.296Z,6.70
2018-11-13T10:50:35.790Z,6.57
2018-11-13T10:53:04.462Z,8.80
2018-11-13T10:55:32.893Z,3.63
2018-11-13T10:58:01.376Z,8.33
2018-11-13T11:00:34.992Z,6.47
2018-11-13T11:03:05.464Z,5.40
2018-11-13T11:05:33.822Z,8.10
2018-11-13T11:08:02.304Z,5.10
2018-11-13T11:10:30.784Z,6.67
2018-11-13T11:12:59.346Z,4.77
2018-11-13T11:15:27.657Z,6.03
2018-11-13T11:17:56.200Z,6.17
2018-11-13T11:20:24.725Z,7.43
2018-11-13T11:22:53.187Z,6.40
2018-11-13T11:25:21.758Z,5.37
2018-11-13T11:27:51.112Z,4.00
2018-11-13T11:30:19.758Z,9.33
2018-11-13T11:32:48.217Z,4.27
2018-11-13T11:35:16.729Z,5.20
2018-11-13T11:37:45.221Z,4.47
2018-11-13T11:40:13.760Z,10.00
2018-11-13T11:42:42.182Z,4.93
2018-11-13T11:45:12.537Z,3.60
2018-11-13T11:47:42.235Z,6.07
2018-11-13T11:50:11.740Z,2.37
2018-11-13T11:52:40.235Z,5.27
2018-11-13T11:55:09.432Z,7.47
2018-11-13T11:57:37.881Z,6.90
2018-11-13T12:00:09.460Z,6.17
2018-11-13T12:02:38.014Z,5.97
2018-11-13T12:05:07.182Z,3.77
2018-11-13T12:07:36.247Z,7.47
2018-11-13T12:10:06.354Z,4.87
2018-11-13T12:12:34.851Z,6.67
2018-11-13T12:15:03.631Z,4.40
2018-11-13T12:17:32.196Z,5.47
2018-11-13T12:20:00.709Z,7.50
2018-11-13T12:22:29.192Z,8.70
2018-11-13T12:24:57.621Z,6.57
2018-11-13T12:27:26.123Z,5.90
2018-11-13T12:29:54.665Z,5.00
2018-11-13T12:32:23.138Z,5.53
2018-11-13T12:34:51.709Z,8.20
2018-11-13T12:37:20.208Z,8.37
2018-11-13T12:39:48.680Z,11.30
2018-11-13T12:42:17.184Z,6.10
2018-11-13T12:44:45.673Z,8.00
2018-11-13T12:47:14.155Z,6.73
2018-11-13T12:49:42.683Z,7.10
2018-11-13T12:52:17.978Z,5.00
2018-11-13T12:54:47.210Z,8.03
2018-11-13T12:57:15.669Z,5.33
2018-11-13T12:59:44.139Z,6.40
2018-11-13T13:02:13.015Z,6.37
2018-11-13T13:04:41.380Z,9.10
2018-11-13T13:07:10.224Z,10.23
2018-11-13T13:09:39.160Z,4.87
2018-11-13T13:12:09.156Z,5.27
2018-11-13T13:14:37.702Z,8.33
2018-11-13T13:17:06.337Z,6.53
2018-11-13T13:19:34.776Z,5.13
2018-11-13T13:22:03.283Z,9.93
2018-11-13T13:24:31.721Z,7.97
2018-11-13T13:27:00.196Z,7.30
2018-11-13T13:29:28.680Z,7.17
2018-11-13T13:31:57.141Z,5.17
2018-11-13T13:34:25.822Z,9.50
2018-11-13T13:36:54.308Z,7.40
2018-11-13T13:39:22.749Z,6.07
2018-11-13T13:41:51.341Z,7.63
2018-11-13T13:44:19.822Z,6.20
2018-11-13T13:46:48.372Z,7.50
2018-11-13T13:49:16.806Z,9.37
2018-11-13T13:51:45.270Z,10.93
2018-11-13T13:54:13.843Z,5.77
2018-11-13T13:56:43.297Z,5.27
2018-11-13T13:59:11.768Z,6.87
2018-11-13T14:01:41.214Z,6.03
2018-11-13T14:04:09.744Z,5.20
2018-11-13T14:06:38.207Z,7.23
2018-11-13T14:09:09.073Z,6.77
2018-11-13T14:11:37.704Z,6.30
2018-11-13T14:14:06.298Z,4.00
2018-11-13T14:16:34.735Z,7.67
2018-11-13T14:19:03.187Z,5.43
2018-11-13T14:21:31.698Z,4.87
2018-11-13T14:24:00.183Z,4.47
2018-11-13T14:26:28.685Z,7.10
2018-11-13T14:28:57.152Z,8.07
2018-11-13T14:31:25.748Z,5.13
2018-11-13T14:33:54.316Z,5.70
2018-11-13T14:36:22.794Z,8.00
2018-11-13T14:38:51.310Z,6.57
2018-11-13T14:41:19.787Z,4.67
2018-11-13T14:43:48.243Z,6.30
2018-11-13T14:46:17.408Z,4.23
2018-11-13T14:48:45.868Z,8.57
2018-11-13T14:51:14.374Z,8.53
2018-11-13T14:53:42.877Z,10.17
2018-11-13T14:56:11.391Z,9.93
2018-11-13T14:58:39.817Z,5.60
2018-11-13T15:01:08.312Z,6.03
2018-11-13T15:03:37.379Z,7.20
2018-11-13T15:06:06.049Z,9.47
2018-11-13T15:08:34.662Z,8.50
2018-11-13T15:11:02.985Z,14.37
2018-11-13T15:13:31.774Z,10.77
2018-11-13T15:16:00.232Z,9.50
2018-11-13T15:18:28.694Z,3.80
2018-11-13T15:20:57.185Z,4.73
2018-11-13T15:23:26.064Z,6.17
2018-11-13T15:25:54.537Z,6.63
2018-11-13T15:28:22.985Z,9.57
2018-11-13T15:30:51.617Z,5.67
2018-11-13T15:33:21.581Z,7.50
2018-11-13T15:35:50.078Z,12.53
2018-11-13T15:38:18.535Z,9.70
2018-11-13T15:40:47.034Z,6.40
2018-11-13T15:43:15.485Z,8.60
2018-11-13T15:45:43.917Z,10.30
2018-11-13T15:48:13.570Z,12.10
2018-11-13T15:50:42.031Z,7.60
2018-11-13T15:53:10.719Z,7.87
2018-11-13T15:55:39.176Z,5.47
2018-11-13T15:58:07.836Z,4.73
2018-11-13T16:00:37.691Z,8.83
2018-11-13T16:03:09.999Z,7.37
2018-11-13T16:05:42.688Z,11.13
2018-11-13T16:08:11.603Z,11.30
2018-11-13T16:10:40.117Z,5.93
2018-11-13T16:13:08.839Z,8.63
2018-11-13T16:15:37.417Z,11.13
2018-11-13T16:18:07.468Z,8.50
2018-11-13T16:20:35.994Z,8.00
2018-11-13T16:23:05.812Z,7.80
2018-11-13T16:25:34.240Z,8.27
2018-11-13T16:28:02.686Z,13.40
2018-11-13T16:30:32.581Z,7.30
2018-11-13T16:33:01.058Z,8.00
2018-11-13T16:35:30.231Z,11.37
2018-11-13T16:37:59.693Z,9.73
2018-11-13T16:40:30.281Z,12.10
2018-11-13T16:42:58.957Z,8.70
2018-11-13T16:45:28.315Z,8.37
2018-11-13T16:47:57.325Z,12.60
2018-11-13T16:50:29.846Z,6.77
2018-11-13T16:52:58.733Z,6.53
2018-11-13T16:55:32.565Z,9.67
2018-11-13T16:58:02.361Z,7.23
2018-11-13T17:00:30.949Z,10.03
2018-11-13T17:02:59.419Z,12.17
2018-11-13T17:12:14.515Z,8.90
2018-11-13T17:14:43.842Z,7.07
2018-11-13T17:17:12.356Z,8.37
2018-11-13T17:19:40.818Z,9.03
2018-11-13T17:22:09.416Z,8.00
2018-11-13T17:24:37.871Z,9.73
2018-11-13T17:27:06.467Z,8.67
2018-11-13T17:29:34.943Z,8.87
2018-11-13T17:32:03.474Z,17.27
2018-11-13T17:34:31.928Z,16.17
2018-11-13T17:37:00.408Z,9.60
2018-11-13T17:39:28.837Z,13.73
2018-11-13T17:41:57.295Z,11.53
2018-11-13T17:44:25.858Z,10.37
2018-11-13T17:46:54.343Z,10.10
2018-11-13T17:49:22.782Z,16.00
2018-11-13T17:51:51.301Z,16.77
2018-11-13T17:54:19.812Z,10.03
2018-11-13T17:56:48.301Z,11.97
2018-11-13T17:59:16.843Z,10.07
2018-11-13T18:01:45.320Z,9.20
2018-11-13T18:04:13.847Z,11.10
2018-11-13T18:06:42.405Z,7.37
2018-11-13T18:09:12.832Z,11.80
2018-11-13T18:11:41.308Z,10.90
2018-11-13T18:14:10.930Z,16.23
2018-11-13T18:16:39.373Z,13.70
2018-11-13T18:19:07.896Z,9.77
2018-11-13T18:21:36.424Z,10.70
2018-11-13T18:24:06.310Z,14.67
2018-11-13T18:26:34.804Z,12.07
2018-11-13T18:29:03.561Z,10.63
2018-11-13T18:31:32.300Z,11.67
2018-11-13T18:34:01.019Z,10.03
2018-11-13T18:36:29.783Z,11.67
2018-11-13T18:38:58.765Z,8.73
2018-11-13T18:41:27.217Z,11.47
2018-11-13T18:43:55.922Z,12.10
2018-11-13T18:46:24.465Z,16.97
2018-11-13T18:48:53.247Z,9.43
2018-11-13T18:51:22.059Z,11.50
2018-11-13T18:53:50.610Z,7.90
2018-11-13T18:56:19.085Z,13.40
2018-11-13T18:58:48.707Z,10.67
2018-11-13T19:01:17.484Z,11.70
2018-11-13T19:03:46.031Z,17.60
2018-11-13T19:06:14.824Z,10.90
2018-11-13T19:08:43.356Z,14.07
2018-11-13T19:11:12.236Z,13.00
2018-11-13T19:13:40.695Z,10.23
2018-11-13T19:16:10.193Z,13.30
2018-11-13T19:18:38.827Z,11.20
2018-11-13T19:21:07.321Z,10.73
2018-11-13T19:23:35.856Z,12.13
2018-11-13T19:26:05.117Z,13.17
2018-11-13T19:28:33.558Z,11.23
2018-11-13T19:31:02.079Z,12.37
2018-11-13T19:33:32.503Z,12.50
2018-11-13T19:36:01.547Z,11.33
2018-11-13T19:38:29.970Z,14.60
2018-11-13T19:40:58.469Z,15.17
2018-11-13T19:43:27.523Z,11.20
2018-11-13T19:45:56.019Z,14.90
2018-11-13T19:48:24.453Z,15.00
2018-11-13T19:50:52.933Z,14.80
2018-11-13T19:53:21.449Z,10.97
2018-11-13T19:55:49.994Z,13.07
2018-11-13T19:58:18.440Z,13.53
2018-11-13T20:00:46.885Z,9.10
2018-11-13T20:03:15.449Z,13.50
2018-11-13T20:05:45.249Z,13.13
2018-11-13T20:08:13.710Z,11.40
2018-11-13T20:10:42.133Z,11.70
2018-11-13T20:13:11.013Z,12.03
2018-11-13T20:15:39.805Z,12.60
2018-11-13T20:18:08.402Z,12.63
2018-11-13T20:20:37.077Z,16.23
2018-11-13T20:23:06.863Z,18.57
2018-11-13T20:25:35.981Z,10.10
2018-11-13T20:28:04.507Z,10.43
2018-11-13T20:30:34.291Z,13.50
2018-11-13T20:33:02.739Z,13.57
2018-11-13T20:35:31.188Z,16.33
2018-11-13T20:38:00.953Z,12.07
2018-11-13T20:40:30.672Z,12.10
2018-11-13T20:43:00.493Z,17.40
2018-11-13T20:45:28.992Z,16.00
2018-11-13T20:47:57.852Z,16.07
2018-11-13T20:50:27.692Z,17.50
2018-11-13T20:52:57.218Z,18.47
2018-11-13T20:55:25.718Z,17.10
2018-11-13T20:57:54.240Z,12.43
2018-11-13T21:00:28.085Z,12.73
2018-11-13T21:02:56.694Z,15.97
2018-11-13T21:05:25.370Z,17.90
2018-11-13T21:07:54.581Z,14.27
2018-11-13T21:10:23.428Z,19.43
2018-11-13T21:12:52.495Z,16.27
2018-11-13T21:15:21.770Z,19.93
2018-11-13T21:17:50.200Z,16.53
2018-11-13T21:20:19.439Z,14.37
2018-11-13T21:22:48.088Z,22.13
2018-11-13T21:25:19.374Z,16.07
2018-11-13T21:27:47.704Z,16.00
2018-11-13T21:30:20.817Z,13.40
2018-11-13T21:32:50.124Z,15.73
2018-11-13T21:35:18.730Z,16.57
2018-11-13T21:37:48.654Z,20.90
2018-11-13T21:40:18.387Z,15.60
2018-11-13T21:42:47.745Z,14.17
2018-11-13T21:45:16.956Z,15.13
2018-11-13T21:47:45.435Z,15.17
2018-11-13T21:50:15.505Z,14.57
2018-11-13T21:52:43.967Z,17.50
2018-11-13T21:55:15.411Z,17.87
2018-11-13T21:57:45.036Z,18.40
2018-11-13T22:00:15.722Z,18.67
2018-11-13T22:02:47.581Z,19.93
2018-11-13T22:05:16.102Z,14.63
2018-11-13T22:07:44.574Z,25.07
2018-11-13T22:10:13.037Z,19.13
2018-11-13T22:12:41.567Z,15.07
2018-11-13T22:15:13.168Z,16.00
2018-11-13T22:17:41.437Z,23.57
2018-11-13T22:20:11.596Z,18.63
2018-11-13T22:22:40.190Z,16.67
2018-11-13T22:25:10.697Z,18.70
2018-11-13T22:27:39.672Z,13.40
2018-11-13T22:30:09.855Z,18.33
2018-11-13T22:32:38.694Z,13.57
2018-11-13T22:35:08.660Z,17.90
2018-11-13T22:37:37.484Z,16.50
2018-11-13T22:40:11.762Z,17.20
2018-11-13T22:42:40.308Z,16.93
2018-11-13T22:45:12.908Z,12.77
2018-11-13T22:47:41.447Z,15.73
2018-11-13T22:50:12.533Z,14.87
2018-11-13T22:52:41.595Z,16.87
2018-11-13T22:55:11.025Z,19.87
2018-11-13T22:57:39.883Z,15.63
2018-11-13T23:00:15.914Z,17.30
2018-11-13T23:02:44.344Z,18.77
2018-11-13T23:05:12.780Z,16.43
2018-11-13T23:07:41.423Z,17.60
2018-11-13T23:10:11.453Z,18.07
2018-11-13T23:12:40.568Z,18.13
2018-11-13T23:15:12.352Z,18.77
2018-11-13T23:17:41.778Z,15.77
2018-11-13T23:20:12.138Z,17.20
2018-11-13T23:22:40.608Z,20.53
2018-11-13T23:25:11.161Z,15.70
2018-11-13T23:27:39.663Z,21.33
2018-11-13T23:30:15.446Z,13.00
2018-11-13T23:32:44.208Z,18.53
2018-11-13T23:35:13.290Z,14.20
2018-11-13T23:37:42.492Z,18.80
2018-11-13T23:40:12.973Z,17.27
2018-11-13T23:42:41.722Z,13.93
2018-11-13T23:45:11.015Z,15.07
2018-11-13T23:47:39.471Z,20.00
2018-11-13T23:50:08.483Z,14.40
2018-11-13T23:52:36.973Z,19.37
2018-11-13T23:55:06.396Z,17.00
2018-11-13T23:57:34.862Z,14.87
